Pagrindinis puslapis
METAR-TAF:

METAR-TAF

Oro uostai :

Makasaras, Pietų Sulavesis, Indonezija

platuma: 05-04S, ilguma: 119-33E, Aukštis: 14 m

Dabartinis oras

Ataskaita buvo paskelbta 40 minutes, ne 08:00 UTC
Vėjas 5 kt iš Vakarų/Šiaurės Vakarų
Temperatūra 29°C
Drėgmė 79%
Slėgis 1008 hPa
Matomumas 10 km arba daugiau
Mažai debesys ne aukštis 1900 ft

METAR: WAAA 230800Z 30005KT 9999 FEW019 29/25 Q1008 NOSIG

Laikas: 15:40 (08:40 UTC)

Prognozė

Ataskaita buvo paskelbta 3 valandos ir 40 minutes, ne 05:00 UTC
Prognozė galioja nuo 23 metu 06 UTC su 24 metu 12 UTC
Vėjas 8 kt iš Vakarų/Šiaurės Vakarų
Matomumas: 9000 m
Išsisklaidę debesys ne aukštis 1800 ft
Tikimybė 40% :
Laikinai
nuo 23 metu 07 UTC su 23 metu 10 UTC
Matomumas: 5000 m
Mažai debesys ne aukštis 1700 ft, Liūtiniai kamuoliniai debesys.
perkūnija, lietus
Tapsmas
nuo 23 metu 10 UTC su 23 metu 12 UTC
Vėjas 5 kt iš Rytų/Pietryčių
Matomumas: 8000 m
Mažai debesys ne aukštis 1900 ft

TAF: WAAA 230500Z 2306/2412 30008KT 9000 SCT018 PROB40 TEMPO 2307/2310 5000 -TSRA FEW017CB BECMG 2310/2312 11005KT 8000 NSW FEW019

Orai ataskaitas ir orų prognozės (METAR, TAF).

turimą stotys yra geltonos ir raudonos taškus žemėlapyje.

Perkelti pele per norėdami pamatyti stoties vardą.

Tada spustelėkite, norėdami matyti oro stebėjimo ir prognozės.

Norėdami pakeisti žemėlapį: spustelėkite ant žalios mygtukų su juodo kryžiaus žemyn,; žalią mygtuką su brūkšneliu, jei norite nutolinti; arba žalių rodyklių gretimoms žemėlapius.


METAR-TAF: